createdAt,value
2019-03-13T00:01:37.245Z,3.43
2019-03-13T00:04:08.102Z,3.10
2019-03-13T00:06:42.458Z,2.43
2019-03-13T00:09:13.178Z,2.60
2019-03-13T00:11:41.382Z,2.27
2019-03-13T00:14:08.866Z,2.87
2019-03-13T00:16:36.184Z,3.27
2019-03-13T00:19:05.552Z,3.20
2019-03-13T00:21:34.185Z,3.57
2019-03-13T00:24:01.306Z,2.37
2019-03-13T00:26:30.076Z,3.43
2019-03-13T00:28:57.559Z,1.93
2019-03-13T00:31:24.462Z,2.83
2019-03-13T00:33:52.547Z,3.10
2019-03-13T00:36:19.510Z,3.60
2019-03-13T00:38:46.643Z,3.20
2019-03-13T00:41:13.928Z,2.83
2019-03-13T00:43:42.757Z,2.77
2019-03-13T00:46:09.820Z,2.67
2019-03-13T00:48:53.916Z,2.57
2019-03-13T00:51:24.053Z,3.10
2019-03-13T00:53:52.715Z,4.50
2019-03-13T00:56:20.228Z,3.13
2019-03-13T00:58:48.062Z,2.83
2019-03-13T01:01:17.424Z,4.20
2019-03-13T01:03:50.030Z,3.67
2019-03-13T01:06:19.238Z,2.53
2019-03-13T01:08:46.395Z,3.70
2019-03-13T01:11:17.395Z,3.10
2019-03-13T01:13:45.394Z,3.83
2019-03-13T01:16:16.213Z,2.83
2019-03-13T01:18:45.516Z,3.90
2019-03-13T01:21:13.317Z,3.73
2019-03-13T01:23:40.492Z,3.40
2019-03-13T01:26:07.287Z,4.17
2019-03-13T01:28:36.741Z,4.80
2019-03-13T01:31:18.218Z,3.80
2019-03-13T01:33:48.075Z,3.63
2019-03-13T01:36:15.376Z,3.43
2019-03-13T01:38:42.477Z,3.07
2019-03-13T01:41:09.656Z,2.60
2019-03-13T01:43:36.882Z,3.03
2019-03-13T01:46:04.781Z,3.33
2019-03-13T01:48:34.114Z,3.07
2019-03-13T01:51:03.049Z,2.97
2019-03-13T01:53:30.088Z,4.07
2019-03-13T01:55:57.211Z,2.90
2019-03-13T01:58:24.159Z,3.40
2019-03-13T02:00:58.668Z,4.37
2019-03-13T02:03:31.464Z,3.50
2019-03-13T02:06:01.291Z,3.90
2019-03-13T02:08:29.490Z,3.97
2019-03-13T02:10:58.121Z,3.27
2019-03-13T02:13:25.348Z,3.77
2019-03-13T02:15:53.852Z,3.17
2019-03-13T02:18:20.648Z,4.60
2019-03-13T02:20:48.286Z,3.97
2019-03-13T02:23:16.490Z,3.43
2019-03-13T02:25:43.623Z,3.60
2019-03-13T02:28:11.433Z,3.20
2019-03-13T02:30:38.306Z,3.20
2019-03-13T02:33:05.396Z,2.80
2019-03-13T02:35:32.385Z,3.73
2019-03-13T02:37:59.405Z,3.07
2019-03-13T02:40:26.116Z,3.70
2019-03-13T02:42:53.482Z,2.93
2019-03-13T02:45:20.525Z,3.33
2019-03-13T02:47:47.674Z,3.90
2019-03-13T02:50:16.013Z,2.93
2019-03-13T02:52:42.950Z,3.87
2019-03-13T02:55:10.972Z,3.30
2019-03-13T02:57:38.136Z,3.73
2019-03-13T03:00:17.649Z,3.67
2019-03-13T03:02:51.278Z,3.50
2019-03-13T03:05:19.336Z,5.13
2019-03-13T03:07:47.910Z,3.67
2019-03-13T03:10:14.884Z,4.57
2019-03-13T03:12:43.624Z,4.57
2019-03-13T03:15:16.179Z,4.20
2019-03-13T03:17:43.998Z,4.17
2019-03-13T03:20:21.052Z,3.30
2019-03-13T03:22:48.132Z,3.67
2019-03-13T03:25:16.198Z,3.80
2019-03-13T03:27:43.452Z,4.20
2019-03-13T03:30:18.228Z,4.43
2019-03-13T03:32:45.439Z,4.57
2019-03-13T03:35:14.068Z,4.03
2019-03-13T03:37:42.337Z,3.80
2019-03-13T03:40:21.723Z,4.60
2019-03-13T03:42:48.377Z,3.60
2019-03-13T03:45:17.198Z,6.33
2019-03-13T03:47:45.969Z,4.70
2019-03-13T03:50:16.885Z,4.97
2019-03-13T03:52:44.107Z,5.83
2019-03-13T03:55:15.904Z,5.17
2019-03-13T03:57:44.871Z,5.37
2019-03-13T04:00:17.375Z,8.17
2019-03-13T04:02:44.237Z,5.67
2019-03-13T04:05:13.844Z,7.30
2019-03-13T04:07:42.634Z,5.07
2019-03-13T04:10:12.181Z,4.43
2019-03-13T04:12:41.230Z,5.97
2019-03-13T04:15:16.813Z,6.10
2019-03-13T04:17:45.580Z,4.93
2019-03-13T04:20:16.850Z,5.40
2019-03-13T04:22:44.076Z,5.33
2019-03-13T04:25:22.202Z,6.10
2019-03-13T04:27:49.284Z,7.00
2019-03-13T04:30:16.389Z,6.27
2019-03-13T04:32:43.251Z,7.40
2019-03-13T04:35:12.081Z,4.87
2019-03-13T04:37:38.931Z,4.53
2019-03-13T04:40:11.408Z,4.47
2019-03-13T04:42:38.480Z,4.87
2019-03-13T04:45:07.526Z,4.77
2019-03-13T04:47:34.633Z,4.50
2019-03-13T04:50:02.819Z,5.07
2019-03-13T04:52:30.087Z,3.93
2019-03-13T04:54:57.158Z,4.40
2019-03-13T04:57:24.242Z,5.33
2019-03-13T04:59:52.816Z,4.60
2019-03-13T05:02:20.385Z,4.77
2019-03-13T05:04:47.798Z,4.53
2019-03-13T05:07:14.551Z,5.40
2019-03-13T05:09:42.629Z,3.93
2019-03-13T05:12:09.438Z,6.17
2019-03-13T05:14:36.682Z,6.00
2019-03-13T05:17:03.851Z,4.77
2019-03-13T05:19:30.757Z,4.83
2019-03-13T05:21:59.248Z,5.57
2019-03-13T05:24:26.685Z,6.73
2019-03-13T05:26:53.798Z,4.10
2019-03-13T05:29:22.463Z,4.10
2019-03-13T05:31:50.538Z,4.87
2019-03-13T05:34:18.769Z,5.70
2019-03-13T05:36:46.017Z,5.93
2019-03-13T05:39:12.954Z,5.80
2019-03-13T05:41:39.975Z,4.47
2019-03-13T05:44:07.093Z,4.00
2019-03-13T05:46:35.310Z,5.37
2019-03-13T05:49:03.936Z,4.83
2019-03-13T05:51:30.637Z,7.50
2019-03-13T05:54:00.299Z,7.17
2019-03-13T05:56:27.069Z,5.33
2019-03-13T05:58:54.237Z,5.50
2019-03-13T06:01:23.342Z,5.93
2019-03-13T06:03:51.601Z,6.90
2019-03-13T06:06:20.535Z,8.63
2019-03-13T06:08:50.434Z,6.90
2019-03-13T06:11:17.617Z,5.50
2019-03-13T06:13:47.428Z,5.00
2019-03-13T06:16:16.702Z,7.00
2019-03-13T06:18:45.475Z,6.50
2019-03-13T06:21:17.514Z,4.73
2019-03-13T06:23:47.604Z,6.17
2019-03-13T06:26:14.350Z,6.03
2019-03-13T06:28:52.624Z,4.70
2019-03-13T06:31:19.682Z,6.97
2019-03-13T06:33:46.858Z,5.27
2019-03-13T06:36:13.534Z,6.67
2019-03-13T06:38:40.447Z,6.63
2019-03-13T06:41:07.406Z,5.37
2019-03-13T06:43:34.174Z,4.87
2019-03-13T06:46:02.754Z,7.30
2019-03-13T06:48:29.810Z,12.57
2019-03-13T06:50:57.069Z,6.23
2019-03-13T06:53:24.930Z,6.50
2019-03-13T06:55:52.807Z,6.00
2019-03-13T06:58:21.797Z,9.10
2019-03-13T07:00:56.414Z,16.20
2019-03-13T07:03:25.318Z,5.90
2019-03-13T07:05:54.914Z,6.17
2019-03-13T07:08:30.412Z,7.47
2019-03-13T07:10:59.613Z,5.37
2019-03-13T07:13:31.247Z,4.40
2019-03-13T07:16:16.454Z,7.27
2019-03-13T07:18:51.196Z,6.17
2019-03-13T07:21:23.231Z,7.50
2019-03-13T07:23:51.830Z,5.47
2019-03-13T07:26:20.670Z,5.97
2019-03-13T07:28:53.810Z,4.67
2019-03-13T07:31:39.264Z,6.97
2019-03-13T07:34:14.248Z,6.20
2019-03-13T07:36:50.693Z,5.63
2019-03-13T07:39:19.616Z,5.50
2019-03-13T07:41:52.952Z,5.60
2019-03-13T07:44:27.848Z,9.20
2019-03-13T07:47:08.549Z,4.97
2019-03-13T07:49:50.252Z,5.43
2019-03-13T07:52:33.131Z,4.87
2019-03-13T07:55:05.142Z,4.60
2019-03-13T07:57:49.412Z,4.63
2019-03-13T08:00:30.226Z,4.50
2019-03-13T08:03:14.039Z,3.90
2019-03-13T08:05:47.111Z,8.83
2019-03-13T08:08:16.880Z,4.00
2019-03-13T08:10:51.718Z,6.83
2019-03-13T08:13:38.997Z,4.80
2019-03-13T08:16:14.014Z,4.90
2019-03-13T08:18:44.428Z,4.50
2019-03-13T08:21:28.801Z,6.27
2019-03-13T08:24:14.588Z,4.73
2019-03-13T08:26:44.710Z,4.83
2019-03-13T08:29:13.797Z,7.03
2019-03-13T08:31:42.781Z,10.13
2019-03-13T08:34:18.255Z,5.03
2019-03-13T08:37:06.894Z,4.13
2019-03-13T08:39:38.384Z,5.07
2019-03-13T08:42:13.787Z,6.00
2019-03-13T08:44:58.152Z,5.60
2019-03-13T08:47:42.440Z,3.13
2019-03-13T08:50:20.818Z,5.60
2019-03-13T08:53:04.774Z,5.97
2019-03-13T08:55:52.402Z,5.33
2019-03-13T08:58:33.474Z,5.10
2019-03-13T09:01:16.590Z,4.53
2019-03-13T09:03:45.671Z,5.07
2019-03-13T09:06:20.196Z,6.97
2019-03-13T09:08:52.118Z,6.20
2019-03-13T09:11:32.668Z,8.27
2019-03-13T09:14:15.526Z,6.20
2019-03-13T09:17:03.547Z,6.37
2019-03-13T09:19:32.433Z,4.83
2019-03-13T09:22:01.429Z,6.03
2019-03-13T09:24:33.440Z,5.27
2019-03-13T09:27:08.054Z,7.50
2019-03-13T09:29:54.973Z,6.97
2019-03-13T09:32:41.463Z,4.97
2019-03-13T09:35:10.579Z,5.83
2019-03-13T09:37:51.588Z,4.60
2019-03-13T09:40:20.452Z,5.33
2019-03-13T09:43:04.188Z,5.43
2019-03-13T09:45:43.675Z,6.83
2019-03-13T09:48:21.982Z,5.87
2019-03-13T09:50:56.755Z,6.43
2019-03-13T09:53:25.772Z,6.97
2019-03-13T09:55:56.472Z,5.80
2019-03-13T09:58:29.974Z,5.60
2019-03-13T10:01:15.776Z,5.90
2019-03-13T10:03:51.982Z,5.70
2019-03-13T10:06:27.293Z,5.87
2019-03-13T10:08:56.409Z,6.87
2019-03-13T10:11:40.695Z,6.10
2019-03-13T10:14:12.484Z,7.13
2019-03-13T10:16:44.678Z,5.50
2019-03-13T10:19:21.283Z,7.23
2019-03-13T10:22:07.258Z,7.13
2019-03-13T10:24:47.993Z,7.17
2019-03-13T10:27:26.282Z,7.60
2019-03-13T10:30:01.919Z,7.80
2019-03-13T10:32:45.839Z,6.90
2019-03-13T10:35:17.737Z,8.53
2019-03-13T10:38:13.671Z,7.77
2019-03-13T10:40:38.209Z,5.77
2019-03-13T10:43:25.137Z,6.80
2019-03-13T10:45:57.178Z,6.60
2019-03-13T10:48:32.231Z,7.63
2019-03-13T10:51:07.431Z,8.03
2019-03-13T10:53:46.479Z,8.73
2019-03-13T10:56:21.145Z,10.23
2019-03-13T10:59:02.385Z,8.83
2019-03-13T11:01:31.457Z,7.73
2019-03-13T11:04:03.759Z,8.10
2019-03-13T11:06:55.072Z,6.83
2019-03-13T11:09:23.247Z,8.97
2019-03-13T11:11:56.226Z,8.57
2019-03-13T11:14:43.252Z,7.70
2019-03-13T11:17:14.976Z,8.10
2019-03-13T11:19:43.997Z,8.27
2019-03-13T11:22:17.065Z,7.80
2019-03-13T11:24:48.542Z,7.23
2019-03-13T11:27:19.993Z,8.90
2019-03-13T11:29:48.883Z,7.87
2019-03-13T11:32:33.138Z,8.60
2019-03-13T11:35:02.098Z,7.90
2019-03-13T11:37:48.827Z,9.27
2019-03-13T11:40:29.601Z,7.30
2019-03-13T11:42:58.823Z,8.10
2019-03-13T11:45:37.313Z,7.87
2019-03-13T11:48:06.589Z,11.27
2019-03-13T11:50:38.872Z,9.23
2019-03-13T11:53:23.121Z,9.67
2019-03-13T11:56:07.176Z,11.73
2019-03-13T11:58:38.756Z,7.90
2019-03-13T12:01:07.647Z,9.33
2019-03-13T12:03:42.921Z,8.47
2019-03-13T12:06:17.713Z,8.80
2019-03-13T12:08:50.606Z,8.60
2019-03-13T12:11:34.757Z,8.10
2019-03-13T12:14:05.007Z,12.10
2019-03-13T12:16:36.693Z,18.57
2019-03-13T12:19:08.878Z,15.63
2019-03-13T12:21:41.250Z,8.80
2019-03-13T12:24:13.167Z,7.80
2019-03-13T12:26:48.115Z,6.20
2019-03-13T12:29:29.047Z,7.10
2019-03-13T12:32:01.147Z,7.00
2019-03-13T12:34:33.003Z,4.93
2019-03-13T12:37:04.583Z,5.40
2019-03-13T12:39:34.055Z,6.67
2019-03-13T12:42:08.757Z,6.67
2019-03-13T12:44:46.631Z,6.20
2019-03-13T12:47:27.513Z,7.97
2019-03-13T12:49:56.562Z,6.37
2019-03-13T12:52:25.597Z,7.47
2019-03-13T12:55:02.419Z,6.83
2019-03-13T12:57:51.361Z,11.53
2019-03-13T13:00:35.643Z,7.50
2019-03-13T13:03:11.563Z,6.73
2019-03-13T13:05:41.303Z,9.73
2019-03-13T13:08:22.663Z,7.93
2019-03-13T13:11:08.615Z,9.97
2019-03-13T13:13:45.139Z,8.53
2019-03-13T13:16:17.014Z,8.70
2019-03-13T13:18:45.907Z,9.27
2019-03-13T13:21:13.278Z,7.93
2019-03-13T13:23:40.101Z,8.27
2019-03-13T13:26:10.283Z,6.93
2019-03-13T13:28:37.267Z,7.97
2019-03-13T13:31:04.704Z,8.93
2019-03-13T13:33:33.049Z,5.97
2019-03-13T13:36:00.049Z,7.60
2019-03-13T13:38:27.766Z,7.87
2019-03-13T13:40:54.885Z,6.73
2019-03-13T13:43:21.909Z,7.03
2019-03-13T13:45:52.821Z,7.33
2019-03-13T13:48:20.381Z,5.77
2019-03-13T13:50:47.848Z,6.73
2019-03-13T13:53:14.910Z,6.07
2019-03-13T13:55:43.612Z,5.17
2019-03-13T13:58:10.724Z,5.87
2019-03-13T14:00:37.835Z,5.27
2019-03-13T14:03:05.122Z,4.33
2019-03-13T14:05:45.900Z,5.43
2019-03-13T14:08:13.167Z,5.57
2019-03-13T14:10:40.708Z,5.03
2019-03-13T14:13:07.957Z,5.07
2019-03-13T14:15:35.023Z,6.30
2019-03-13T14:18:02.307Z,3.90
2019-03-13T14:20:29.308Z,5.27
2019-03-13T14:22:56.756Z,4.60
2019-03-13T14:25:23.949Z,6.37
2019-03-13T14:27:51.054Z,4.83
2019-03-13T14:30:22.079Z,4.53
2019-03-13T14:32:49.469Z,6.50
2019-03-13T14:35:16.837Z,8.57
2019-03-13T14:37:44.142Z,4.07
2019-03-13T14:40:14.936Z,4.20
2019-03-13T14:42:43.480Z,5.30
2019-03-13T14:45:14.922Z,2.90
2019-03-13T14:47:44.338Z,3.80
2019-03-13T14:50:16.268Z,5.37
2019-03-13T14:52:43.567Z,5.17
2019-03-13T14:55:14.636Z,4.27
2019-03-13T14:57:43.678Z,4.20
2019-03-13T15:00:17.392Z,3.97
2019-03-13T15:02:45.679Z,6.90
2019-03-13T15:05:13.332Z,4.70
2019-03-13T15:07:40.587Z,3.90
2019-03-13T15:10:10.708Z,5.33
2019-03-13T15:12:38.773Z,5.33
2019-03-13T15:15:15.631Z,4.17
2019-03-13T15:17:43.265Z,5.53
2019-03-13T15:20:22.117Z,5.23
2019-03-13T15:22:49.734Z,4.63
2019-03-13T15:25:17.271Z,4.60
2019-03-13T15:27:44.818Z,4.67
2019-03-13T15:30:29.684Z,4.27
2019-03-13T15:32:57.218Z,5.27
2019-03-13T15:35:24.807Z,5.57
2019-03-13T15:37:52.790Z,4.10
2019-03-13T15:40:20.404Z,4.40
2019-03-13T15:42:47.567Z,4.83
2019-03-13T15:45:26.803Z,4.77
2019-03-13T15:47:54.121Z,4.57
2019-03-13T15:50:21.429Z,4.37
2019-03-13T15:52:48.460Z,3.67
2019-03-13T15:55:16.937Z,6.00
2019-03-13T15:57:44.064Z,4.03
2019-03-13T16:00:24.114Z,4.37
2019-03-13T16:02:51.304Z,4.83
2019-03-13T16:05:20.336Z,4.80
2019-03-13T16:07:47.617Z,4.60
2019-03-13T16:10:15.895Z,3.50
2019-03-13T16:12:42.855Z,3.87
2019-03-13T16:15:19.626Z,3.47
2019-03-13T16:17:48.519Z,4.60
2019-03-13T16:20:17.537Z,4.27
2019-03-13T16:22:52.785Z,4.23
2019-03-13T16:25:20.125Z,6.70
2019-03-13T16:27:47.760Z,4.33
2019-03-13T16:30:20.592Z,4.03
2019-03-13T16:32:47.899Z,3.50
2019-03-13T16:35:15.032Z,4.60
2019-03-13T16:37:42.742Z,3.90
2019-03-13T16:40:13.252Z,3.77
2019-03-13T16:42:40.491Z,4.10
2019-03-13T16:45:11.560Z,3.73
2019-03-13T16:47:38.689Z,5.10
2019-03-13T16:50:09.672Z,6.20
2019-03-13T16:52:36.879Z,7.10
2019-03-13T16:55:08.030Z,5.33
2019-03-13T16:57:36.246Z,3.87
2019-03-13T17:00:13.509Z,4.93
2019-03-13T17:02:42.497Z,5.77
2019-03-13T17:05:12.400Z,7.17
2019-03-13T17:07:39.344Z,4.20
2019-03-13T17:10:09.635Z,5.03
2019-03-13T17:12:36.946Z,4.30
2019-03-13T17:15:13.478Z,5.60
2019-03-13T17:17:41.139Z,4.07
2019-03-13T17:20:11.242Z,5.17
2019-03-13T17:22:43.108Z,6.17
2019-03-13T17:25:12.639Z,4.00
2019-03-13T17:27:41.820Z,10.80
2019-03-13T17:30:15.950Z,5.50
2019-03-13T17:32:43.638Z,4.23
2019-03-13T17:35:10.893Z,3.73
2019-03-13T17:37:39.244Z,3.93
2019-03-13T17:40:10.832Z,3.70
2019-03-13T17:42:38.244Z,5.10
2019-03-13T17:45:09.159Z,4.57
2019-03-13T17:47:36.716Z,6.03
2019-03-13T17:50:07.375Z,4.97
2019-03-13T17:52:34.284Z,3.67
2019-03-13T17:55:01.960Z,5.97
2019-03-13T17:57:29.239Z,7.10
2019-03-13T17:59:56.928Z,4.67
2019-03-13T18:02:24.782Z,4.97
2019-03-13T18:04:52.169Z,6.17
2019-03-13T18:07:19.258Z,4.67
2019-03-13T18:09:46.760Z,6.37
2019-03-13T18:12:14.477Z,6.60
2019-03-13T18:14:42.675Z,4.90
2019-03-13T18:17:09.941Z,4.90
2019-03-13T18:19:37.674Z,5.63
2019-03-13T18:22:05.310Z,6.47
2019-03-13T18:24:32.404Z,6.10
2019-03-13T18:27:00.140Z,5.90
2019-03-13T18:29:27.132Z,6.23
2019-03-13T18:31:54.658Z,6.77
2019-03-13T18:34:23.632Z,4.70
2019-03-13T18:36:52.046Z,4.90
2019-03-13T18:39:19.326Z,4.30
2019-03-13T18:41:48.839Z,4.60
2019-03-13T18:44:16.496Z,5.77
2019-03-13T18:46:44.382Z,5.00
2019-03-13T18:49:13.459Z,7.83
2019-03-13T18:51:42.874Z,5.57
2019-03-13T18:54:10.306Z,5.50
2019-03-13T18:56:38.620Z,7.53
2019-03-13T18:59:06.513Z,5.00
2019-03-13T19:01:35.376Z,7.13
2019-03-13T19:04:03.018Z,6.23
2019-03-13T19:06:29.881Z,5.50
2019-03-13T19:08:57.018Z,5.13
2019-03-13T19:11:24.094Z,4.37
2019-03-13T19:13:52.703Z,5.40
2019-03-13T19:16:19.867Z,5.43
2019-03-13T19:18:46.944Z,7.00
2019-03-13T19:21:17.384Z,5.00
2019-03-13T19:23:45.170Z,3.90
2019-03-13T19:26:13.190Z,5.43
2019-03-13T19:28:40.310Z,5.27
2019-03-13T19:31:07.752Z,5.70
2019-03-13T19:33:37.640Z,5.97
2019-03-13T19:36:05.109Z,8.03
2019-03-13T19:38:32.760Z,5.80
2019-03-13T19:40:59.849Z,7.47
2019-03-13T19:43:27.348Z,4.37
2019-03-13T19:45:54.106Z,6.37
2019-03-13T19:48:27.156Z,5.73
2019-03-13T19:50:56.500Z,6.23
2019-03-13T19:53:25.080Z,5.53
2019-03-13T19:55:53.339Z,4.83
2019-03-13T19:58:20.398Z,6.20
2019-03-13T20:00:48.020Z,13.50
2019-03-13T20:03:16.391Z,5.43
2019-03-13T20:05:46.036Z,5.87
2019-03-13T20:08:13.933Z,7.33
2019-03-13T20:10:41.236Z,5.03
2019-03-13T20:13:08.501Z,5.80
2019-03-13T20:15:35.495Z,5.03
2019-03-13T20:18:04.535Z,6.50
2019-03-13T20:20:33.626Z,5.73
2019-03-13T20:23:04.875Z,6.93
2019-03-13T20:25:33.141Z,5.70
2019-03-13T20:28:00.329Z,6.70
2019-03-13T20:30:29.148Z,5.03
2019-03-13T20:32:56.531Z,6.63
2019-03-13T20:35:23.791Z,5.23
2019-03-13T20:37:50.883Z,4.67
2019-03-13T20:40:22.968Z,7.20
2019-03-13T20:42:51.099Z,6.50
2019-03-13T20:45:28.160Z,5.27
2019-03-13T20:47:55.498Z,4.77
2019-03-13T20:50:35.144Z,3.23
2019-03-13T20:52:53.240Z,3.93
2019-03-13T20:55:23.426Z,4.80
2019-03-13T20:57:52.598Z,4.27
2019-03-13T21:00:23.059Z,4.30
2019-03-13T21:02:53.993Z,6.27
2019-03-13T21:05:22.177Z,5.87
2019-03-13T21:07:49.461Z,4.70
2019-03-13T21:10:16.423Z,4.20
2019-03-13T21:12:43.591Z,4.77
2019-03-13T21:15:14.906Z,5.47
2019-03-13T21:17:42.486Z,5.03
2019-03-13T21:20:12.684Z,5.30
2019-03-13T21:22:40.081Z,3.97
2019-03-13T21:25:10.404Z,3.30
2019-03-13T21:27:37.643Z,4.07
2019-03-13T21:30:15.195Z,4.03
2019-03-13T21:32:42.725Z,4.13
2019-03-13T21:35:10.590Z,4.27
2019-03-13T21:37:38.929Z,3.97
2019-03-13T21:40:09.208Z,3.53
2019-03-13T21:42:36.449Z,3.27
2019-03-13T21:45:04.021Z,3.60
2019-03-13T21:47:32.542Z,3.47
2019-03-13T21:49:59.473Z,4.87
2019-03-13T21:52:26.723Z,3.40
2019-03-13T21:54:53.914Z,4.77
2019-03-13T21:57:21.661Z,4.87
2019-03-13T21:59:48.761Z,3.53
2019-03-13T22:02:16.101Z,3.60
2019-03-13T22:04:43.271Z,3.73
2019-03-13T22:07:10.545Z,4.47
2019-03-13T22:09:37.699Z,4.97
2019-03-13T22:12:06.067Z,3.77
2019-03-13T22:14:33.429Z,4.27
2019-03-13T22:17:00.613Z,4.97
2019-03-13T22:19:27.839Z,4.30
2019-03-13T22:21:54.827Z,4.47
2019-03-13T22:24:22.453Z,5.63
2019-03-13T22:26:49.475Z,4.53
2019-03-13T22:29:16.855Z,4.03
2019-03-13T22:31:43.938Z,4.10
2019-03-13T22:34:10.949Z,3.87
2019-03-13T22:36:38.426Z,4.13
2019-03-13T22:39:06.507Z,4.57
2019-03-13T22:41:36.646Z,3.57
2019-03-13T22:44:03.753Z,4.17
2019-03-13T22:46:30.656Z,4.00
2019-03-13T22:48:59.557Z,4.50
2019-03-13T22:51:26.537Z,4.40
2019-03-13T22:53:56.128Z,3.50
2019-03-13T22:56:24.369Z,4.87
2019-03-13T22:58:52.700Z,5.53
2019-03-13T23:01:23.011Z,4.50
2019-03-13T23:03:50.465Z,3.80
2019-03-13T23:06:19.673Z,4.30
2019-03-13T23:08:46.604Z,4.27
2019-03-13T23:11:13.441Z,3.83
2019-03-13T23:13:40.395Z,5.00
2019-03-13T23:16:07.673Z,5.17
2019-03-13T23:18:34.806Z,6.00
2019-03-13T23:21:02.207Z,4.27
2019-03-13T23:23:29.597Z,4.40
2019-03-13T23:25:56.884Z,5.53
2019-03-13T23:28:24.474Z,5.17
2019-03-13T23:30:51.607Z,4.37
2019-03-13T23:33:18.685Z,5.87
2019-03-13T23:35:45.771Z,6.17
2019-03-13T23:38:13.111Z,4.40
2019-03-13T23:40:40.265Z,5.53
2019-03-13T23:43:07.177Z,5.20
2019-03-13T23:45:34.199Z,5.67
2019-03-13T23:48:03.128Z,5.27
2019-03-13T23:50:30.268Z,6.77
2019-03-13T23:52:57.480Z,6.03
2019-03-13T23:55:24.589Z,6.90
2019-03-13T23:57:51.501Z,5.37
